KPDX

Portland International Airport

Portland, Oregon, USA
METAR KPDX 151904Z 19010KT 10SM -RA BKN019 BKN034 OVC049 06/03 A2969 RMK AO2 WSHFT 1844 P0000 T00610028
Observed Flight Rules
Feb-15 @ 19:04 UTC (9 minutes ago) Marginal Visual Flight Rules
Wind Visibility Clouds Conditions
190° at 10 knots 10 miles
  • Broken at 1,900' AGL
  • Broken at 3,400' AGL
  • Overcast at 4,900' AGL
  • Light Rain
Temperatures Readings Precipitation
Current 6°C / 43°F
Dewpoint 3°C / 37°F
Humidity 81%
Altimeter 29.69" Hg
Pressure 1005.42 hPa
Elevation 7
Current Rain 0.01
METAR KPDX 151904Z 19010KT 10SM -RA BKN019 BKN034 OVC049 06/03 A2969 RMK AO2 WSHFT 1844 P0000 T00610028
Observed Flight Rules
Feb-15 @ 19:04 UTC
(9 minutes ago)
MVFR
Wind Visibility
190° at 10 knots 10 miles
Clouds
  • Broken at 1,900' AGL
  • Broken at 3,400' AGL
  • Overcast at 4,900' AGL
Conditions
  • Light Rain
Temperature Dewpoint
6°C / 43°F 3°C / 37°F
Humidity Altimeter Pressure
81% 29.69" Hg 1005.42 hPa
Current Rain
0.01